createdAt,value
2023-03-29T00:00:50.349Z,370.00
2023-03-29T00:01:50.368Z,372.00
2023-03-29T00:02:50.463Z,373.00
2023-03-29T00:03:50.407Z,374.00
2023-03-29T00:04:50.411Z,374.00
2023-03-29T00:05:50.445Z,372.00
2023-03-29T00:06:50.475Z,373.00
2023-03-29T00:07:50.455Z,373.00
2023-03-29T00:08:50.473Z,374.00
2023-03-29T00:09:50.526Z,373.00
2023-03-29T00:10:50.517Z,376.00
2023-03-29T00:11:50.528Z,375.00
2023-03-29T00:12:50.534Z,373.00
2023-03-29T00:13:50.583Z,372.00
2023-03-29T00:14:50.574Z,371.00
2023-03-29T00:15:50.651Z,371.00
2023-03-29T00:16:50.711Z,372.00
2023-03-29T00:17:50.680Z,375.00
2023-03-29T00:18:50.660Z,373.00
2023-03-29T00:19:50.685Z,371.00
2023-03-29T00:20:50.748Z,371.00
2023-03-29T00:21:50.717Z,370.00
2023-03-29T00:22:50.735Z,370.00
2023-03-29T00:23:50.758Z,370.00
2023-03-29T00:24:50.783Z,371.00
2023-03-29T00:25:50.805Z,372.00
2023-03-29T00:26:50.830Z,372.00
2023-03-29T00:27:50.818Z,373.00
2023-03-29T00:28:50.853Z,372.00
2023-03-29T00:29:50.844Z,371.00
2023-03-29T00:30:50.894Z,371.00
2023-03-29T00:31:51.017Z,368.00
2023-03-29T00:32:50.939Z,369.00
2023-03-29T00:33:50.956Z,368.00
2023-03-29T00:34:50.979Z,365.00
2023-03-29T00:35:51.046Z,366.00
2023-03-29T00:36:51.061Z,367.00
2023-03-29T00:37:51.165Z,366.00
2023-03-29T00:38:51.054Z,365.00
2023-03-29T00:39:51.072Z,364.00
2023-03-29T00:40:51.105Z,365.00
2023-03-29T00:41:51.109Z,366.00
2023-03-29T00:42:51.154Z,366.00
2023-03-29T00:43:51.142Z,367.00
2023-03-29T00:44:51.163Z,366.00
2023-03-29T00:45:51.165Z,366.00
2023-03-29T00:46:51.287Z,366.00
2023-03-29T00:47:51.270Z,368.00
2023-03-29T00:48:51.218Z,367.00
2023-03-29T00:49:51.284Z,369.00
2023-03-29T00:50:51.331Z,371.00
2023-03-29T00:51:51.311Z,371.00
2023-03-29T00:52:51.323Z,371.00
2023-03-29T00:53:51.330Z,371.00
2023-03-29T00:54:51.386Z,371.00
2023-03-29T00:55:51.416Z,372.00
2023-03-29T00:56:51.499Z,369.00
2023-03-29T00:57:51.437Z,368.00
2023-03-29T00:58:51.442Z,366.00
2023-03-29T00:59:51.478Z,365.00
2023-03-29T01:00:51.483Z,366.00
2023-03-29T01:01:51.542Z,368.00
2023-03-29T01:02:51.627Z,367.00
2023-03-29T01:03:51.566Z,369.00
2023-03-29T01:04:51.587Z,370.00
2023-03-29T01:05:51.585Z,373.00
2023-03-29T01:06:51.682Z,374.00
2023-03-29T01:07:51.650Z,372.00
2023-03-29T01:08:51.621Z,370.00
2023-03-29T01:09:51.673Z,372.00
2023-03-29T01:10:51.667Z,373.00
2023-03-29T01:11:51.683Z,372.00
2023-03-29T01:12:51.742Z,370.00
2023-03-29T01:13:51.732Z,370.00
2023-03-29T01:14:51.783Z,368.00
2023-03-29T01:15:51.797Z,367.00
2023-03-29T01:16:51.896Z,367.00
2023-03-29T01:17:51.849Z,367.00
2023-03-29T01:18:51.861Z,368.00
2023-03-29T01:19:51.833Z,365.00
2023-03-29T01:20:51.860Z,366.00
2023-03-29T01:21:51.870Z,371.00
2023-03-29T01:22:51.868Z,370.00
2023-03-29T01:23:51.902Z,371.00
2023-03-29T01:24:52.010Z,375.00
2023-03-29T01:25:52.072Z,378.00
2023-03-29T01:26:52.098Z,377.00
2023-03-29T01:27:52.076Z,375.00
2023-03-29T01:28:52.094Z,373.00
2023-03-29T01:29:52.138Z,371.00
2023-03-29T01:30:52.141Z,368.00
2023-03-29T01:31:52.215Z,367.00
2023-03-29T01:32:52.190Z,367.00
2023-03-29T01:33:52.163Z,366.00
2023-03-29T01:34:52.193Z,367.00
2023-03-29T01:35:52.211Z,366.00
2023-03-29T01:36:52.217Z,367.00
2023-03-29T01:37:52.243Z,366.00
2023-03-29T01:38:52.262Z,368.00
2023-03-29T01:39:52.254Z,369.00
2023-03-29T01:40:52.264Z,368.00
2023-03-29T01:41:52.275Z,371.00
2023-03-29T01:42:52.286Z,371.00
2023-03-29T01:43:52.307Z,369.00
2023-03-29T01:44:52.517Z,368.00
2023-03-29T01:45:52.465Z,367.00
2023-03-29T01:46:52.441Z,370.00
2023-03-29T01:47:52.471Z,370.00
2023-03-29T01:48:52.452Z,370.00
2023-03-29T01:49:52.451Z,371.00
2023-03-29T01:50:52.539Z,372.00
2023-03-29T01:51:52.552Z,374.00
2023-03-29T01:52:52.542Z,374.00
2023-03-29T01:53:52.561Z,373.00
2023-03-29T01:54:52.554Z,375.00
2023-03-29T01:55:52.588Z,375.00
2023-03-29T01:56:52.617Z,373.00
2023-03-29T01:57:52.623Z,373.00
2023-03-29T01:58:52.635Z,371.00
2023-03-29T01:59:52.641Z,371.00
2023-03-29T02:00:52.687Z,371.00
2023-03-29T02:01:52.814Z,373.00
2023-03-29T02:02:52.748Z,375.00
2023-03-29T02:03:52.742Z,376.00
2023-03-29T02:04:52.749Z,374.00
2023-03-29T02:05:52.786Z,372.00
2023-03-29T02:06:52.809Z,369.00
2023-03-29T02:07:52.832Z,367.00
2023-03-29T02:08:52.842Z,365.00
2023-03-29T02:09:52.823Z,365.00
2023-03-29T02:10:52.886Z,365.00
2023-03-29T02:11:52.903Z,365.00
2023-03-29T02:12:52.901Z,364.00
2023-03-29T02:13:52.929Z,362.00
2023-03-29T02:14:52.938Z,362.00
2023-03-29T02:15:53.104Z,362.00
2023-03-29T02:16:53.030Z,364.00
2023-03-29T02:17:53.116Z,362.00
2023-03-29T02:18:53.086Z,362.00
2023-03-29T02:19:53.118Z,362.00
2023-03-29T02:20:53.150Z,364.00
2023-03-29T02:21:53.160Z,367.00
2023-03-29T02:22:53.155Z,369.00
2023-03-29T02:23:53.161Z,371.00
2023-03-29T02:24:53.244Z,373.00
2023-03-29T02:25:53.241Z,374.00
2023-03-29T02:26:53.260Z,375.00
2023-03-29T02:27:53.279Z,376.00
2023-03-29T02:28:53.287Z,377.00
2023-03-29T02:29:53.324Z,377.00
2023-03-29T02:30:53.426Z,371.00
2023-03-29T02:31:53.366Z,370.00
2023-03-29T02:32:53.377Z,370.00
2023-03-29T02:33:53.415Z,368.00
2023-03-29T02:34:53.503Z,368.00
2023-03-29T02:35:53.685Z,369.00
2023-03-29T02:36:53.620Z,367.00
2023-03-29T02:37:53.638Z,366.00
2023-03-29T02:38:53.630Z,367.00
2023-03-29T02:39:53.668Z,364.00
2023-03-29T02:40:53.791Z,360.00
2023-03-29T02:41:53.894Z,359.00
2023-03-29T02:42:54.476Z,363.00
2023-03-29T02:43:54.007Z,363.00
2023-03-29T02:44:53.999Z,364.00
2023-03-29T02:45:54.002Z,362.00
2023-03-29T02:46:54.066Z,360.00
2023-03-29T02:47:54.064Z,359.00
2023-03-29T02:48:54.065Z,360.00
2023-03-29T02:49:54.070Z,359.00
2023-03-29T02:50:54.100Z,359.00
2023-03-29T02:51:54.109Z,359.00
2023-03-29T02:52:54.212Z,360.00
2023-03-29T02:53:54.223Z,360.00
2023-03-29T02:54:54.221Z,360.00
2023-03-29T02:55:54.245Z,360.00
2023-03-29T02:56:54.270Z,360.00
2023-03-29T02:57:54.250Z,359.00
2023-03-29T02:58:54.292Z,358.00
2023-03-29T02:59:54.301Z,358.00
2023-03-29T03:00:54.318Z,357.00
2023-03-29T03:01:54.396Z,358.00
2023-03-29T03:02:54.380Z,359.00
2023-03-29T03:03:54.513Z,359.00
2023-03-29T03:04:54.419Z,360.00
2023-03-29T03:05:54.415Z,363.00
2023-03-29T03:06:54.468Z,364.00
2023-03-29T03:07:54.444Z,365.00
2023-03-29T03:08:54.456Z,365.00
2023-03-29T03:09:54.481Z,366.00
2023-03-29T03:10:54.500Z,366.00
2023-03-29T03:11:54.536Z,368.00
2023-03-29T03:12:54.522Z,366.00
2023-03-29T03:13:54.534Z,368.00
2023-03-29T03:14:54.566Z,368.00
2023-03-29T03:15:54.682Z,364.00
2023-03-29T03:16:54.669Z,365.00
2023-03-29T03:17:54.714Z,366.00
2023-03-29T03:18:54.678Z,368.00
2023-03-29T03:19:54.699Z,368.00
2023-03-29T03:20:54.704Z,370.00
2023-03-29T03:21:54.744Z,367.00
2023-03-29T03:22:54.729Z,366.00
2023-03-29T03:23:54.756Z,367.00
2023-03-29T03:24:54.768Z,367.00
2023-03-29T03:25:54.804Z,367.00
2023-03-29T03:26:54.802Z,367.00
2023-03-29T03:27:54.791Z,365.00
2023-03-29T03:28:54.833Z,364.00
2023-03-29T03:29:54.858Z,363.00
2023-03-29T03:30:54.895Z,365.00
2023-03-29T03:31:54.945Z,365.00
2023-03-29T03:32:54.965Z,364.00
2023-03-29T03:33:54.921Z,364.00
2023-03-29T03:34:54.924Z,362.00
2023-03-29T03:35:54.990Z,364.00
2023-03-29T03:36:54.984Z,364.00
2023-03-29T03:37:54.976Z,365.00
2023-03-29T03:38:54.979Z,366.00
2023-03-29T03:39:54.993Z,366.00
2023-03-29T03:40:55.101Z,366.00
2023-03-29T03:41:55.148Z,368.00
2023-03-29T03:42:55.148Z,369.00
2023-03-29T03:43:55.160Z,369.00
2023-03-29T03:44:55.171Z,366.00
2023-03-29T03:45:55.195Z,364.00
2023-03-29T03:46:55.176Z,362.00
2023-03-29T03:47:55.238Z,363.00
2023-03-29T03:48:55.213Z,365.00
2023-03-29T03:49:55.320Z,366.00
2023-03-29T03:50:55.348Z,367.00
2023-03-29T03:51:55.377Z,365.00
2023-03-29T03:52:55.387Z,362.00
2023-03-29T03:53:55.398Z,363.00
2023-03-29T03:54:55.410Z,365.00
2023-03-29T03:55:55.475Z,366.00
2023-03-29T03:56:55.489Z,366.00
2023-03-29T03:57:55.465Z,366.00
2023-03-29T03:58:55.493Z,366.00
2023-03-29T03:59:55.530Z,366.00
2023-03-29T04:00:55.523Z,367.00
2023-03-29T04:01:55.643Z,366.00
2023-03-29T04:02:55.638Z,367.00
2023-03-29T04:03:55.702Z,364.00
2023-03-29T04:04:55.638Z,363.00
2023-03-29T04:05:55.687Z,364.00
2023-03-29T04:06:55.635Z,365.00
2023-03-29T04:07:55.657Z,364.00
2023-03-29T04:08:55.672Z,365.00
2023-03-29T04:09:55.692Z,368.00
2023-03-29T04:10:55.687Z,369.00
2023-03-29T04:11:55.706Z,370.00
2023-03-29T04:12:55.708Z,369.00
2023-03-29T04:13:55.711Z,370.00
2023-03-29T04:14:55.736Z,367.00
2023-03-29T04:15:55.791Z,366.00
2023-03-29T04:16:55.747Z,367.00
2023-03-29T04:17:55.803Z,368.00
2023-03-29T04:18:55.821Z,367.00
2023-03-29T04:19:55.783Z,365.00
2023-03-29T04:20:55.795Z,368.00
2023-03-29T04:21:55.818Z,370.00
2023-03-29T04:22:55.846Z,369.00
2023-03-29T04:23:55.820Z,368.00
2023-03-29T04:24:55.826Z,370.00
2023-03-29T04:25:55.841Z,369.00
2023-03-29T04:26:55.849Z,368.00
2023-03-29T04:27:55.875Z,369.00
2023-03-29T04:28:55.896Z,369.00
2023-03-29T04:29:55.884Z,367.00
2023-03-29T04:30:55.930Z,367.00
2023-03-29T04:31:55.906Z,364.00
2023-03-29T04:32:55.986Z,365.00
2023-03-29T04:33:57.790Z,369.00
2023-03-29T04:34:55.918Z,368.00
2023-03-29T04:35:55.937Z,369.00
2023-03-29T04:36:55.898Z,369.00
2023-03-29T04:37:55.892Z,369.00
2023-03-29T04:38:55.875Z,368.00
2023-03-29T04:39:55.879Z,369.00
2023-03-29T04:40:55.874Z,368.00
2023-03-29T04:41:55.856Z,367.00
2023-03-29T04:42:55.868Z,367.00
2023-03-29T04:43:55.868Z,369.00
2023-03-29T04:44:55.888Z,370.00
2023-03-29T04:45:55.867Z,369.00
2023-03-29T04:46:55.815Z,367.00
2023-03-29T04:47:55.837Z,365.00
2023-03-29T04:48:55.809Z,368.00
2023-03-29T04:49:55.809Z,368.00
2023-03-29T04:50:55.810Z,367.00
2023-03-29T04:51:55.786Z,367.00
2023-03-29T04:52:55.785Z,367.00
2023-03-29T04:53:55.771Z,368.00
2023-03-29T04:54:55.779Z,367.00
2023-03-29T04:55:55.780Z,368.00
2023-03-29T04:56:55.791Z,365.00
2023-03-29T04:57:55.809Z,366.00
2023-03-29T04:58:55.732Z,367.00
2023-03-29T04:59:55.721Z,368.00
2023-03-29T05:00:55.726Z,366.00
2023-03-29T05:01:55.758Z,367.00
2023-03-29T05:02:55.837Z,366.00
2023-03-29T05:03:55.724Z,367.00
2023-03-29T05:04:55.692Z,367.00
2023-03-29T05:05:55.697Z,366.00
2023-03-29T05:06:55.674Z,369.00
2023-03-29T05:07:55.741Z,370.00
2023-03-29T05:08:55.681Z,374.00
2023-03-29T05:09:55.655Z,374.00
2023-03-29T05:10:55.647Z,376.00
2023-03-29T05:11:55.642Z,379.00
2023-03-29T05:12:55.630Z,384.00
2023-03-29T05:13:55.648Z,384.00
2023-03-29T05:14:55.623Z,388.00
2023-03-29T05:15:55.684Z,389.00
2023-03-29T05:16:55.607Z,387.00
2023-03-29T05:17:55.649Z,385.00
2023-03-29T05:18:55.597Z,390.00
2023-03-29T05:19:55.586Z,392.00
2023-03-29T05:20:55.581Z,396.00
2023-03-29T05:21:55.572Z,396.00
2023-03-29T05:22:55.639Z,398.00
2023-03-29T05:23:55.573Z,400.00
2023-03-29T05:24:55.562Z,402.00
2023-03-29T05:25:55.573Z,406.00
2023-03-29T05:26:55.592Z,404.00
2023-03-29T05:27:55.543Z,408.00
2023-03-29T05:28:55.551Z,424.00
2023-03-29T05:29:55.523Z,431.00
2023-03-29T05:30:55.541Z,446.00
2023-03-29T05:31:55.611Z,508.00
2023-03-29T05:32:55.528Z,497.00
2023-03-29T05:33:55.488Z,496.00
2023-03-29T05:34:55.516Z,496.00
2023-03-29T05:35:55.526Z,506.00
2023-03-29T05:36:55.465Z,516.00
2023-03-29T05:37:55.480Z,520.00
2023-03-29T05:38:55.466Z,522.00
2023-03-29T05:40:06.118Z,521.00
2023-03-29T05:40:56.458Z,533.00
2023-03-29T05:41:55.443Z,534.00
2023-03-29T05:42:55.440Z,565.00
2023-03-29T05:43:55.433Z,603.00
2023-03-29T05:44:55.421Z,616.00
2023-03-29T05:45:55.433Z,613.00
2023-03-29T05:46:55.394Z,604.00
2023-03-29T05:47:55.400Z,601.00
2023-03-29T05:48:55.391Z,598.00
2023-03-29T05:49:55.373Z,602.00
2023-03-29T05:50:55.365Z,607.00
2023-03-29T05:51:55.370Z,618.00
2023-03-29T05:52:55.355Z,625.00
2023-03-29T05:53:55.351Z,635.00
2023-03-29T05:54:55.389Z,646.00
2023-03-29T05:55:55.414Z,654.00
2023-03-29T05:56:55.502Z,661.00
2023-03-29T05:57:55.494Z,668.00
2023-03-29T05:58:55.541Z,672.00
2023-03-29T05:59:55.584Z,760.00
2023-03-29T06:00:55.639Z,753.00
2023-03-29T06:01:55.689Z,744.00
2023-03-29T06:03:01.328Z,735.00
2023-03-29T06:03:56.813Z,732.00
2023-03-29T06:04:55.715Z,726.00
2023-03-29T06:05:55.669Z,723.00
2023-03-29T06:06:55.660Z,724.00
2023-03-29T06:07:55.638Z,725.00
2023-03-29T06:08:55.629Z,729.00
2023-03-29T06:09:55.631Z,732.00
2023-03-29T06:10:55.637Z,731.00
2023-03-29T06:11:55.622Z,733.00
2023-03-29T06:12:55.606Z,734.00
2023-03-29T06:13:55.594Z,742.00
2023-03-29T06:14:55.593Z,751.00
2023-03-29T06:15:55.593Z,754.00
2023-03-29T06:16:55.631Z,752.00
2023-03-29T06:17:55.578Z,752.00
2023-03-29T06:18:55.573Z,749.00
2023-03-29T06:19:55.558Z,754.00
2023-03-29T06:20:55.557Z,761.00
2023-03-29T06:21:55.531Z,762.00
2023-03-29T06:22:55.530Z,763.00
2023-03-29T06:23:55.543Z,1230.00
2023-03-29T06:24:55.530Z,891.00
2023-03-29T06:25:55.759Z,859.00
2023-03-29T06:26:55.547Z,837.00
2023-03-29T06:27:55.568Z,823.00
2023-03-29T06:28:55.592Z,816.00
2023-03-29T06:29:55.586Z,794.00
2023-03-29T06:30:55.644Z,789.00
2023-03-29T06:31:55.636Z,793.00
2023-03-29T06:32:55.707Z,663.00
2023-03-29T06:33:55.681Z,619.00
2023-03-29T06:34:55.707Z,581.00
2023-03-29T06:35:55.768Z,606.00
2023-03-29T06:36:55.755Z,619.00
2023-03-29T06:37:55.784Z,697.00
2023-03-29T06:38:55.799Z,709.00
2023-03-29T06:39:55.825Z,707.00
2023-03-29T06:40:55.876Z,723.00
2023-03-29T06:41:55.887Z,743.00
2023-03-29T06:42:55.896Z,757.00
2023-03-29T06:43:55.902Z,757.00
2023-03-29T06:44:55.906Z,749.00
2023-03-29T06:45:56.381Z,749.00
2023-03-29T06:46:56.274Z,752.00
2023-03-29T06:47:56.355Z,748.00
2023-03-29T06:48:56.019Z,745.00
2023-03-29T06:49:56.158Z,677.00
2023-03-29T06:51:56.202Z,591.00
2023-03-29T06:52:56.751Z,619.00
2023-03-29T06:53:56.343Z,651.00
2023-03-29T06:54:56.387Z,668.00
2023-03-29T06:55:56.482Z,687.00
2023-03-29T06:56:56.587Z,723.00
2023-03-29T06:57:56.759Z,745.00
2023-03-29T06:58:56.664Z,755.00
2023-03-29T06:59:56.637Z,749.00
2023-03-29T07:00:56.697Z,746.00
2023-03-29T07:01:56.730Z,739.00
2023-03-29T07:02:56.782Z,747.00
2023-03-29T07:03:56.789Z,751.00
2023-03-29T07:04:56.827Z,635.00
2023-03-29T07:05:56.873Z,560.00
2023-03-29T07:06:56.926Z,533.00
2023-03-29T07:07:57.315Z,532.00
2023-03-29T07:08:57.014Z,525.00
2023-03-29T07:09:57.076Z,529.00
2023-03-29T07:10:57.081Z,530.00
2023-03-29T07:11:57.129Z,533.00
2023-03-29T07:12:57.112Z,536.00
2023-03-29T07:13:57.124Z,546.00
2023-03-29T07:14:57.125Z,558.00
2023-03-29T07:15:57.141Z,571.00
2023-03-29T07:16:57.179Z,630.00
2023-03-29T07:17:57.144Z,626.00
2023-03-29T07:18:57.132Z,609.00
2023-03-29T07:19:57.118Z,704.00
2023-03-29T07:20:57.170Z,690.00
2023-03-29T07:21:57.280Z,684.00
2023-03-29T07:22:57.188Z,676.00
2023-03-29T07:23:57.193Z,688.00
2023-03-29T07:24:57.227Z,682.00
2023-03-29T07:25:57.255Z,672.00
2023-03-29T07:27:04.069Z,919.00
2023-03-29T07:27:58.262Z,877.00
2023-03-29T07:28:57.253Z,690.00
2023-03-29T07:29:57.246Z,603.00
2023-03-29T07:30:57.247Z,610.00
2023-03-29T07:31:57.254Z,587.00
2023-03-29T07:32:57.342Z,584.00
2023-03-29T07:33:57.293Z,605.00
2023-03-29T07:34:57.219Z,620.00
2023-03-29T07:35:57.276Z,622.00
2023-03-29T07:36:57.281Z,713.00
2023-03-29T07:37:57.195Z,719.00
2023-03-29T07:38:57.236Z,732.00
2023-03-29T07:39:57.181Z,726.00
2023-03-29T07:40:57.202Z,719.00
2023-03-29T07:41:57.246Z,709.00
2023-03-29T07:42:57.294Z,716.00
2023-03-29T07:43:57.331Z,719.00
2023-03-29T07:44:57.784Z,714.00
2023-03-29T07:45:57.364Z,714.00
2023-03-29T07:46:57.387Z,726.00
2023-03-29T07:47:57.601Z,731.00
2023-03-29T07:48:57.399Z,734.00
2023-03-29T07:49:57.769Z,728.00
2023-03-29T07:50:57.405Z,720.00
2023-03-29T07:51:57.409Z,710.00
2023-03-29T07:52:57.804Z,705.00
2023-03-29T07:53:57.505Z,702.00
2023-03-29T07:54:57.769Z,705.00
2023-03-29T07:55:57.625Z,707.00
2023-03-29T07:56:57.683Z,705.00
2023-03-29T07:57:57.739Z,707.00
2023-03-29T07:58:57.779Z,714.00
2023-03-29T07:59:58.273Z,741.00
2023-03-29T08:00:57.904Z,755.00
2023-03-29T08:01:57.906Z,779.00
2023-03-29T08:02:57.973Z,784.00
2023-03-29T08:03:58.065Z,789.00
2023-03-29T08:04:58.023Z,783.00
2023-03-29T08:05:58.035Z,774.00
2023-03-29T08:06:58.052Z,773.00
2023-03-29T08:07:58.165Z,770.00
2023-03-29T08:08:58.131Z,817.00
2023-03-29T08:09:58.180Z,858.00
2023-03-29T08:10:58.233Z,851.00
2023-03-29T08:11:58.246Z,849.00
2023-03-29T08:12:58.352Z,842.00
2023-03-29T08:13:58.322Z,834.00
2023-03-29T08:14:58.802Z,687.00
2023-03-29T08:15:58.405Z,591.00
2023-03-29T08:16:58.499Z,519.00
2023-03-29T08:17:58.570Z,529.00
2023-03-29T08:18:58.485Z,545.00
2023-03-29T08:19:58.787Z,548.00
2023-03-29T08:20:58.511Z,559.00
2023-03-29T08:21:58.562Z,571.00
2023-03-29T08:22:58.607Z,588.00
2023-03-29T08:23:58.666Z,621.00
2023-03-29T08:24:58.808Z,671.00
2023-03-29T08:25:58.820Z,685.00
2023-03-29T08:26:58.847Z,685.00
2023-03-29T08:27:59.312Z,694.00
2023-03-29T08:28:58.915Z,699.00
2023-03-29T08:29:58.942Z,705.00
2023-03-29T08:30:58.989Z,1010.00
2023-03-29T08:31:59.013Z,825.00
2023-03-29T08:32:58.995Z,802.00
2023-03-29T08:33:59.046Z,839.00
2023-03-29T08:34:59.061Z,813.00
2023-03-29T08:35:59.145Z,810.00
2023-03-29T08:36:59.202Z,836.00
2023-03-29T08:37:59.290Z,801.00
2023-03-29T08:38:59.300Z,807.00
2023-03-29T08:39:59.323Z,805.00
2023-03-29T08:40:59.427Z,799.00
2023-03-29T08:41:59.834Z,798.00
2023-03-29T08:42:59.812Z,791.00
2023-03-29T08:43:59.574Z,716.00
2023-03-29T08:44:59.627Z,684.00
2023-03-29T08:45:59.728Z,596.00
2023-03-29T08:46:59.796Z,588.00
2023-03-29T08:47:59.767Z,573.00
2023-03-29T08:48:59.810Z,556.00
2023-03-29T08:49:59.841Z,549.00
2023-03-29T08:50:59.963Z,545.00
2023-03-29T08:51:59.898Z,536.00
2023-03-29T08:52:59.917Z,526.00
2023-03-29T08:53:59.949Z,524.00
2023-03-29T08:54:59.971Z,525.00
2023-03-29T08:56:00.024Z,525.00
2023-03-29T08:57:00.121Z,539.00
2023-03-29T08:58:00.098Z,557.00
2023-03-29T08:59:00.060Z,565.00
2023-03-29T09:00:00.124Z,576.00
2023-03-29T09:01:00.353Z,586.00
2023-03-29T09:02:00.296Z,587.00
2023-03-29T09:03:00.314Z,589.00
2023-03-29T09:04:00.269Z,591.00
2023-03-29T09:05:00.152Z,592.00
2023-03-29T09:06:00.137Z,591.00
2023-03-29T09:07:00.140Z,589.00
2023-03-29T09:08:00.147Z,588.00
2023-03-29T09:09:00.335Z,590.00
2023-03-29T09:10:00.201Z,590.00
2023-03-29T09:11:00.417Z,588.00
2023-03-29T09:12:00.243Z,588.00
2023-03-29T09:13:00.306Z,585.00
2023-03-29T09:14:23.481Z,576.00
2023-03-29T09:15:23.486Z,580.00
2023-03-29T09:16:23.487Z,586.00
2023-03-29T09:17:23.504Z,587.00
2023-03-29T09:18:23.477Z,585.00
2023-03-29T09:19:23.430Z,582.00
2023-03-29T09:20:23.462Z,580.00
2023-03-29T09:21:23.421Z,579.00
2023-03-29T09:22:23.481Z,580.00
2023-03-29T09:23:23.427Z,578.00
2023-03-29T09:24:23.452Z,577.00
2023-03-29T09:25:23.420Z,577.00
2023-03-29T09:26:23.399Z,580.00
2023-03-29T09:27:23.407Z,578.00
2023-03-29T09:28:23.679Z,578.00
2023-03-29T09:29:23.378Z,577.00
2023-03-29T09:30:23.363Z,574.00
2023-03-29T09:31:23.394Z,573.00
2023-03-29T09:32:23.401Z,572.00
2023-03-29T09:33:23.682Z,570.00
2023-03-29T09:34:23.342Z,574.00
2023-03-29T09:35:23.314Z,581.00
2023-03-29T09:36:23.306Z,592.00
2023-03-29T09:37:23.317Z,591.00
2023-03-29T09:38:23.302Z,587.00
2023-03-29T09:39:23.295Z,585.00
2023-03-29T09:40:23.283Z,582.00
2023-03-29T09:41:23.273Z,581.00
2023-03-29T09:42:23.276Z,585.00
2023-03-29T09:43:23.294Z,590.00
2023-03-29T09:44:30.972Z,597.00
2023-03-29T09:45:24.284Z,621.00
2023-03-29T09:46:23.282Z,634.00
2023-03-29T09:47:23.306Z,638.00
2023-03-29T09:48:23.690Z,647.00
2023-03-29T09:49:23.237Z,662.00
2023-03-29T09:50:31.739Z,666.00
2023-03-29T09:51:24.243Z,673.00
2023-03-29T09:52:23.205Z,678.00
2023-03-29T09:53:23.187Z,680.00
2023-03-29T09:54:23.180Z,682.00
2023-03-29T09:55:23.171Z,682.00
2023-03-29T09:56:23.174Z,678.00
2023-03-29T09:57:23.215Z,679.00
2023-03-29T09:58:23.164Z,682.00
2023-03-29T09:59:23.167Z,683.00
2023-03-29T10:00:23.185Z,686.00
2023-03-29T10:01:23.191Z,686.00
2023-03-29T10:02:23.147Z,686.00
2023-03-29T10:03:23.219Z,682.00
2023-03-29T10:04:23.213Z,685.00
2023-03-29T10:05:23.101Z,685.00
2023-03-29T10:06:23.100Z,687.00
2023-03-29T10:07:23.088Z,690.00
2023-03-29T10:08:23.097Z,693.00
2023-03-29T10:09:23.199Z,696.00
2023-03-29T10:10:23.085Z,698.00
2023-03-29T10:11:23.065Z,697.00
2023-03-29T10:12:23.211Z,694.00
2023-03-29T10:13:23.106Z,690.00
2023-03-29T10:14:23.065Z,691.00
2023-03-29T10:15:29.759Z,692.00
2023-03-29T10:16:24.080Z,691.00
2023-03-29T10:17:23.092Z,687.00
2023-03-29T10:18:23.019Z,684.00
2023-03-29T10:19:23.229Z,687.00
2023-03-29T10:20:23.005Z,684.00
2023-03-29T10:21:23.016Z,676.00
2023-03-29T10:22:22.990Z,675.00
2023-03-29T10:23:23.012Z,672.00
2023-03-29T10:24:22.993Z,672.00
2023-03-29T10:25:22.970Z,763.00
2023-03-29T10:26:22.982Z,758.00
2023-03-29T10:27:22.984Z,755.00
2023-03-29T10:28:22.947Z,750.00
2023-03-29T10:29:22.959Z,749.00
2023-03-29T10:30:22.953Z,749.00
2023-03-29T10:31:22.969Z,753.00
2023-03-29T10:32:23.250Z,762.00
2023-03-29T10:33:22.928Z,785.00
2023-03-29T10:34:22.943Z,799.00
2023-03-29T10:35:22.921Z,810.00
2023-03-29T10:36:22.911Z,821.00
2023-03-29T10:37:22.908Z,832.00
2023-03-29T10:38:22.889Z,838.00
2023-03-29T10:39:22.894Z,841.00
2023-03-29T10:40:23.220Z,845.00
2023-03-29T10:41:23.021Z,844.00
2023-03-29T10:42:23.049Z,847.00
2023-03-29T10:43:23.116Z,850.00
2023-03-29T10:44:23.168Z,849.00
2023-03-29T10:45:23.214Z,849.00
2023-03-29T10:46:23.295Z,851.00
2023-03-29T10:47:23.395Z,853.00
2023-03-29T10:48:23.351Z,850.00
2023-03-29T10:49:23.427Z,851.00
2023-03-29T10:50:23.521Z,850.00
2023-03-29T10:51:23.556Z,849.00
2023-03-29T10:52:23.628Z,848.00
2023-03-29T10:53:23.654Z,845.00
2023-03-29T10:54:23.692Z,833.00
2023-03-29T10:55:23.765Z,836.00
2023-03-29T10:56:23.817Z,839.00
2023-03-29T10:57:23.922Z,842.00
2023-03-29T10:58:23.936Z,841.00
2023-03-29T10:59:23.970Z,844.00
2023-03-29T11:00:24.208Z,842.00
2023-03-29T11:01:24.112Z,840.00
2023-03-29T11:02:24.203Z,839.00
2023-03-29T11:03:24.255Z,840.00
2023-03-29T11:04:24.246Z,836.00
2023-03-29T11:05:24.284Z,828.00
2023-03-29T11:06:24.342Z,828.00
2023-03-29T11:07:24.402Z,828.00
2023-03-29T11:08:24.451Z,827.00
2023-03-29T11:09:24.493Z,825.00
2023-03-29T11:10:24.529Z,822.00
2023-03-29T11:11:24.568Z,814.00
2023-03-29T11:12:24.603Z,814.00
2023-03-29T11:13:24.663Z,818.00
2023-03-29T11:14:24.730Z,828.00
2023-03-29T11:15:25.211Z,812.00
2023-03-29T11:16:24.911Z,807.00
2023-03-29T11:17:24.836Z,794.00
2023-03-29T11:18:24.883Z,724.00
2023-03-29T11:19:24.929Z,680.00
2023-03-29T11:20:24.977Z,661.00
2023-03-29T11:21:25.046Z,618.00
2023-03-29T11:22:25.103Z,592.00
2023-03-29T11:23:25.154Z,571.00
2023-03-29T11:24:25.188Z,554.00
2023-03-29T11:25:26.608Z,544.00
2023-03-29T11:26:25.454Z,545.00
2023-03-29T11:27:25.485Z,547.00
2023-03-29T11:28:25.580Z,550.00
2023-03-29T11:29:25.624Z,556.00
2023-03-29T11:30:25.678Z,562.00
2023-03-29T11:31:25.810Z,566.00
2023-03-29T11:32:25.807Z,572.00
2023-03-29T11:33:25.860Z,577.00
2023-03-29T11:34:25.906Z,583.00
2023-03-29T11:35:25.974Z,583.00
2023-03-29T11:36:26.029Z,583.00
2023-03-29T11:37:26.086Z,581.00
2023-03-29T11:38:26.119Z,579.00
2023-03-29T11:39:26.204Z,576.00
2023-03-29T11:40:26.289Z,568.00
2023-03-29T11:41:26.287Z,567.00
2023-03-29T11:42:26.348Z,564.00
2023-03-29T11:43:26.416Z,560.00
2023-03-29T11:44:26.473Z,558.00
2023-03-29T11:45:26.524Z,554.00
2023-03-29T11:46:26.605Z,551.00
2023-03-29T11:47:26.655Z,549.00
2023-03-29T11:48:26.694Z,543.00
2023-03-29T11:49:26.736Z,538.00
2023-03-29T11:50:26.797Z,537.00
2023-03-29T11:51:26.845Z,536.00
2023-03-29T11:52:26.883Z,532.00
2023-03-29T11:53:26.901Z,529.00
2023-03-29T11:54:26.984Z,527.00
2023-03-29T11:55:27.255Z,526.00
2023-03-29T11:56:26.973Z,526.00
2023-03-29T11:57:27.291Z,522.00
2023-03-29T11:58:27.008Z,519.00
2023-03-29T11:59:27.012Z,517.00
2023-03-29T12:00:27.022Z,514.00
2023-03-29T12:01:27.013Z,511.00
2023-03-29T12:02:27.336Z,508.00
2023-03-29T12:03:27.056Z,508.00
2023-03-29T12:04:27.044Z,505.00
2023-03-29T12:05:27.020Z,501.00
2023-03-29T12:06:27.010Z,500.00
2023-03-29T12:07:27.019Z,500.00
2023-03-29T12:08:27.227Z,498.00
2023-03-29T12:09:27.040Z,496.00
2023-03-29T12:10:27.078Z,493.00
2023-03-29T12:11:27.050Z,495.00
2023-03-29T12:12:27.093Z,494.00
2023-03-29T12:13:27.230Z,494.00
2023-03-29T12:14:28.108Z,491.00
2023-03-29T12:15:27.073Z,493.00
2023-03-29T12:16:27.132Z,493.00
2023-03-29T12:17:27.113Z,490.00
2023-03-29T12:18:27.118Z,488.00
2023-03-29T12:19:27.125Z,487.00
2023-03-29T12:20:27.165Z,485.00
2023-03-29T12:21:27.176Z,482.00
2023-03-29T12:22:27.131Z,483.00
2023-03-29T12:23:27.159Z,485.00
2023-03-29T12:24:27.218Z,486.00
2023-03-29T12:25:27.192Z,487.00
2023-03-29T12:26:27.220Z,484.00
2023-03-29T12:27:27.198Z,487.00
2023-03-29T12:28:27.219Z,486.00
2023-03-29T12:29:27.261Z,485.00
2023-03-29T12:30:27.270Z,492.00